Time;durP1;ratioP1;P1;durP2;ratioP2;P2;SDS_P1;SDS_P2;PMS_P1;PMS_P2;Temp;Humidity;BMP_temperature;BMP_pressure;BME280_temperature;BME280_humidity;BME280_pressure;Samples;Min_cycle;Max_cycle;Signal;HPM_P1;HPM_P2
2022/08/14 00:02:15;;;;;;;4.03;3.03;;;21.40;99.80;;;;;;4984617;28;20027;-60
2022/08/14 00:04:41;;;;;;;3.13;2.88;;;21.40;99.80;;;;;;4990346;28;20049;-61
2022/08/14 00:07:07;;;;;;;3.00;2.80;;;21.30;99.70;;;;;;4988373;28;20659;-60
2022/08/14 00:09:34;;;;;;;3.22;2.78;;;21.30;99.60;;;;;;4991562;28;20031;-60
2022/08/14 00:12:00;;;;;;;2.92;2.67;;;21.30;99.70;;;;;;4983969;28;20026;-60
2022/08/14 00:14:27;;;;;;;3.95;2.95;;;21.30;99.40;;;;;;4983316;28;20023;-60
2022/08/14 00:16:53;;;;;;;3.72;3.08;;;21.30;99.60;;;;;;4990408;28;20049;-61
2022/08/14 00:19:19;;;;;;;3.63;2.58;;;21.30;99.70;;;;;;4986334;28;20475;-61
2022/08/14 00:21:44;;;;;;;3.30;2.65;;;21.30;99.60;;;;;;4989860;28;20193;-61
2022/08/14 00:24:10;;;;;;;2.75;2.55;;;21.20;99.60;;;;;;4988669;28;20034;-61
2022/08/14 00:26:36;;;;;;;3.55;2.97;;;21.20;99.80;;;;;;4985316;28;20061;-60
2022/08/14 00:29:01;;;;;;;3.42;2.67;;;21.20;99.80;;;;;;4991298;28;20030;-61
2022/08/14 00:31:27;;;;;;;6.15;2.60;;;21.20;99.60;;;;;;4986287;28;20687;-61
2022/08/14 00:33:53;;;;;;;3.50;3.13;;;21.20;99.50;;;;;;4988443;28;20034;-61
2022/08/14 00:36:23;;;;;;;3.33;3.13;;;21.20;99.40;;;;;;4985180;28;20039;-60
2022/08/14 00:38:48;;;;;;;3.05;2.60;;;21.20;99.60;;;;;;4990247;28;20054;-60
2022/08/14 00:41:14;;;;;;;2.95;2.47;;;21.20;99.40;;;;;;4986690;28;20054;-60
2022/08/14 00:43:40;;;;;;;2.80;2.60;;;21.20;99.80;;;;;;4987788;28;20504;-59
2022/08/14 00:46:08;;;;;;;2.70;2.50;;;21.10;99.60;;;;;;4983764;28;20037;-61
2022/08/14 00:48:35;;;;;;;3.33;2.97;;;21.10;99.80;;;;;;4981094;28;20031;-60
2022/08/14 00:51:02;;;;;;;2.58;2.38;;;21.10;99.60;;;;;;4988335;28;20132;-59
2022/08/14 00:53:27;;;;;;;2.88;2.67;;;21.10;99.70;;;;;;4982913;28;20118;-60
2022/08/14 00:55:55;;;;;;;2.65;2.45;;;21.10;99.50;;;;;;4990115;28;20058;-61
2022/08/14 00:58:30;;;;;;;2.88;2.67;;;21.10;99.40;;;;;;4983641;28;20030;-59
2022/08/14 01:01:01;;;;;;;2.70;2.50;;;21.10;99.70;;;;;;4985188;28;20026;-61
2022/08/14 01:03:30;;;;;;;3.90;2.65;;;21.10;99.90;;;;;;4986928;28;20030;-60
2022/08/14 01:05:57;;;;;;;3.08;2.47;;;21.00;99.70;;;;;;4982160;28;20601;-60
2022/08/14 01:08:28;;;;;;;2.88;2.65;;;21.00;99.70;;;;;;4991013;28;20022;-60
2022/08/14 01:10:56;;;;;;;3.10;2.80;;;21.00;99.90;;;;;;4981505;28;20024;-62
2022/08/14 01:13:28;;;;;;;2.55;2.30;;;21.00;99.90;;;;;;4985744;28;20022;-61
2022/08/14 01:15:57;;;;;;;3.08;2.78;;;21.00;99.90;;;;;;4987989;28;20038;-59
2022/08/14 01:21:16;;;;;;;3.10;2.80;;;21.00;99.90;;;;;;4984037;28;20100;-60
2022/08/14 01:23:51;;;;;;;3.45;2.70;;;21.00;99.90;;;;;;4982993;28;20560;-61
2022/08/14 01:26:20;;;;;;;2.40;2.30;;;21.00;99.90;;;;;;4988538;28;20022;-60
2022/08/14 01:28:47;;;;;;;3.95;2.50;;;21.00;99.90;;;;;;4985494;28;20045;-60
2022/08/14 01:31:18;;;;;;;3.25;2.95;;;21.00;99.90;;;;;;4983818;28;21392;-61
2022/08/14 01:33:47;;;;;;;2.85;2.65;;;21.00;99.90;;;;;;4989203;28;20053;-61
2022/08/14 01:36:15;;;;;;;2.92;2.60;;;20.90;99.90;;;;;;4984599;28;20033;-61
2022/08/14 01:38:44;;;;;;;2.63;2.42;;;20.90;99.90;;;;;;4982735;28;20022;-61
2022/08/14 01:41:13;;;;;;;3.10;2.78;;;20.90;99.90;;;;;;4984781;28;20031;-61
2022/08/14 01:44:00;;;;;;;3.40;2.75;;;21.00;99.90;;;;;;4989698;28;20026;-59
2022/08/14 01:46:33;;;;;;;2.60;2.40;;;20.90;99.90;;;;;;4980337;28;20530;-61
2022/08/14 01:49:00;;;;;;;2.90;2.65;;;20.90;99.90;;;;;;4981283;28;20030;-60
2022/08/14 01:51:27;;;;;;;3.40;2.65;;;20.90;99.90;;;;;;4983994;28;20104;-58
2022/08/14 01:53:57;;;;;;;2.50;2.30;;;20.90;99.90;;;;;;4984170;28;20605;-58
2022/08/14 01:56:37;;;;;;;3.05;2.53;;;20.90;99.90;;;;;;4986833;28;20045;-60
2022/08/14 01:59:05;;;;;;;3.88;2.53;;;20.90;99.90;;;;;;4987046;28;20030;-61
2022/08/14 02:01:32;;;;;;;2.55;2.38;;;20.80;99.90;;;;;;4985156;28;20443;-60
2022/08/14 02:03:58;;;;;;;2.85;2.53;;;20.90;99.90;;;;;;4982654;28;20018;-61
2022/08/14 02:06:25;;;;;;;3.35;2.45;;;20.90;99.90;;;;;;4986135;28;20569;-59
2022/08/14 02:08:52;;;;;;;3.70;2.40;;;20.80;99.90;;;;;;4982700;28;20104;-61
2022/08/14 02:11:21;;;;;;;3.00;2.80;;;20.90;99.90;;;;;;4981847;28;20520;-60
2022/08/14 02:13:58;;;;;;;2.53;2.33;;;20.80;99.90;;;;;;4984604;28;20564;-59
2022/08/14 02:16:28;;;;;;;2.70;2.50;;;20.80;99.90;;;;;;4976300;28;20034;-61
2022/08/14 02:18:56;;;;;;;2.47;2.30;;;20.80;99.90;;;;;;4982137;28;20078;-61
2022/08/14 02:21:22;;;;;;;2.78;2.47;;;20.80;99.90;;;;;;4983663;28;20030;-60
2022/08/14 02:23:49;;;;;;;2.85;2.55;;;20.80;99.90;;;;;;4983520;28;20517;-60
2022/08/14 02:26:27;;;;;;;3.65;2.75;;;20.80;99.90;;;;;;4983214;28;20023;-59
2022/08/14 02:28:58;;;;;;;3.00;2.50;;;20.80;99.90;;;;;;4981869;28;20027;-61
2022/08/14 02:31:29;;;;;;;2.80;2.58;;;20.80;99.90;;;;;;4983996;28;20018;-62
2022/08/14 02:33:55;;;;;;;2.95;2.72;;;20.80;99.90;;;;;;4980425;28;20034;-61
2022/08/14 02:36:21;;;;;;;4.13;3.33;;;20.80;99.90;;;;;;4983993;28;20028;-62
2022/08/14 02:38:48;;;;;;;2.70;2.50;;;20.80;99.90;;;;;;4983039;28;20117;-60
2022/08/14 02:41:14;;;;;;;3.00;2.67;;;20.80;99.90;;;;;;4978258;28;20038;-61
2022/08/14 02:43:40;;;;;;;2.63;2.25;;;20.80;99.90;;;;;;4984303;28;20037;-61
2022/08/14 02:46:10;;;;;;;3.10;2.83;;;20.70;99.90;;;;;;4982232;28;20054;-60
2022/08/14 02:48:38;;;;;;;3.97;2.47;;;20.70;99.90;;;;;;4984920;28;20077;-61
2022/08/14 02:51:07;;;;;;;2.97;2.78;;;20.70;99.90;;;;;;4980932;28;20019;-61
2022/08/14 02:53:33;;;;;;;2.95;2.70;;;20.70;99.90;;;;;;4984931;28;20114;-60
2022/08/14 02:56:01;;;;;;;3.53;2.92;;;20.70;99.90;;;;;;4986862;28;20084;-61
2022/08/14 02:58:28;;;;;;;3.58;2.58;;;20.70;99.90;;;;;;4986718;28;20034;-61
2022/08/14 03:00:54;;;;;;;2.40;2.30;;;20.70;99.90;;;;;;4984009;28;20060;-58
2022/08/14 03:03:21;;;;;;;2.95;2.50;;;20.70;99.90;;;;;;4980272;28;20043;-60
2022/08/14 03:05:50;;;;;;;4.07;3.15;;;20.70;99.90;;;;;;4985248;28;20026;-60
2022/08/14 03:08:17;;;;;;;2.90;2.70;;;20.70;99.90;;;;;;4985941;28;20019;-61
2022/08/14 03:10:43;;;;;;;2.85;2.08;;;20.70;99.90;;;;;;4985959;28;20054;-60
2022/08/14 03:13:09;;;;;;;2.83;2.63;;;20.70;99.90;;;;;;4982982;28;20018;-59
2022/08/14 03:15:39;;;;;;;4.50;2.53;;;20.70;99.90;;;;;;4988419;28;20038;-61
2022/08/14 03:18:12;;;;;;;4.28;2.70;;;20.70;99.90;;;;;;4983768;28;20516;-61
2022/08/14 03:20:38;;;;;;;4.03;2.50;;;20.60;99.90;;;;;;5011816;23;20077;-56
2022/08/14 03:23:04;;;;;;;2.78;2.58;;;20.60;99.90;;;;;;4987908;28;20054;-52
2022/08/14 03:25:32;;;;;;;4.25;2.53;;;20.60;99.90;;;;;;4980729;28;20113;-55
2022/08/14 03:28:04;;;;;;;2.92;2.58;;;20.60;99.90;;;;;;4987619;28;20027;-53
2022/08/14 03:30:31;;;;;;;2.55;2.35;;;20.60;99.90;;;;;;4988486;28;20026;-54
2022/08/14 03:32:57;;;;;;;2.70;2.50;;;20.60;99.90;;;;;;4987482;28;20077;-51
2022/08/14 03:35:23;;;;;;;2.40;2.20;;;20.60;99.90;;;;;;4988369;28;20034;-54
2022/08/14 03:37:51;;;;;;;4.13;2.83;;;20.60;99.90;;;;;;4981960;28;20034;-57
2022/08/14 03:40:21;;;;;;;2.85;2.53;;;20.60;99.90;;;;;;4989137;28;20466;-51
2022/08/14 03:42:49;;;;;;;2.75;2.30;;;20.60;99.90;;;;;;4988297;28;20519;-55
2022/08/14 03:45:16;;;;;;;2.95;2.60;;;20.50;99.90;;;;;;4979924;28;20521;-57
2022/08/14 03:47:42;;;;;;;3.83;2.33;;;20.50;99.90;;;;;;4989171;28;20068;-50
2022/08/14 03:50:09;;;;;;;3.08;2.72;;;20.50;99.90;;;;;;4981434;28;20030;-53
2022/08/14 03:52:36;;;;;;;4.22;2.95;;;20.50;99.90;;;;;;4988447;28;20026;-51
2022/08/14 03:55:07;;;;;;;3.95;2.63;;;20.50;99.90;;;;;;4986541;28;20030;-55
2022/08/14 03:57:35;;;;;;;3.58;2.70;;;20.40;99.90;;;;;;4986579;28;20097;-54
2022/08/14 04:00:07;;;;;;;3.17;2.75;;;20.40;99.90;;;;;;4988965;28;20027;-54
2022/08/14 04:02:33;;;;;;;2.67;2.50;;;20.40;99.90;;;;;;4988294;28;21169;-54
2022/08/14 04:05:00;;;;;;;3.97;2.70;;;20.40;99.90;;;;;;4986709;28;20037;-52
2022/08/14 04:07:26;;;;;;;2.85;2.65;;;20.40;99.90;;;;;;4983798;28;20082;-54
2022/08/14 04:09:52;;;;;;;2.55;2.30;;;20.40;99.90;;;;;;4986831;28;20131;-54
2022/08/14 04:12:18;;;;;;;3.50;2.63;;;20.30;99.90;;;;;;4988622;28;20026;-51
2022/08/14 04:14:44;;;;;;;3.83;2.70;;;20.30;99.90;;;;;;4990821;28;20409;-50
2022/08/14 04:17:10;;;;;;;5.18;2.85;;;20.20;99.90;;;;;;4989065;28;20083;-52
2022/08/14 04:19:36;;;;;;;3.38;2.63;;;20.30;99.90;;;;;;4988041;28;20478;-51
2022/08/14 04:22:02;;;;;;;2.83;2.63;;;20.30;99.90;;;;;;4981627;28;20040;-54
2022/08/14 04:24:28;;;;;;;4.18;2.90;;;20.20;99.90;;;;;;4986007;28;20354;-53
2022/08/14 04:26:54;;;;;;;5.90;3.03;;;20.20;99.90;;;;;;4985920;28;20105;-52
2022/08/14 04:29:19;;;;;;;3.90;2.63;;;20.20;99.90;;;;;;4992858;28;20029;-55
2022/08/14 04:31:45;;;;;;;2.70;2.45;;;20.20;99.90;;;;;;4992062;28;20037;-56
2022/08/14 04:34:11;;;;;;;2.63;2.42;;;20.20;99.90;;;;;;4991787;28;20532;-52
2022/08/14 04:43:34;;;;;;;3.42;2.58;;;20.20;99.90;;;;;;4991979;28;20038;-55
2022/08/14 04:44:51;;;;;;;3.05;2.80;;;20.20;99.90;;;;;;4991622;28;20046;-53
2022/08/14 04:50:02;;;;;;;3.92;3.00;;;20.20;99.90;;;;;;4991490;28;20080;-50
2022/08/14 04:52:28;;;;;;;4.82;3.10;;;20.20;99.90;;;;;;4990856;28;20501;-55
2022/08/14 04:54:54;;;;;;;3.63;2.65;;;20.20;99.90;;;;;;4984343;28;20031;-55
2022/08/14 04:57:20;;;;;;;5.15;2.78;;;20.30;99.90;;;;;;4989986;28;20022;-51
2022/08/14 04:59:45;;;;;;;2.92;2.70;;;20.30;99.90;;;;;;4991623;28;20290;-53
2022/08/14 05:02:12;;;;;;;4.88;2.95;;;20.30;99.90;;;;;;4990797;28;20453;-54
2022/08/14 05:04:38;;;;;;;2.85;2.50;;;20.30;99.90;;;;;;4991238;28;20053;-51
2022/08/14 05:07:04;;;;;;;3.72;3.20;;;20.30;99.90;;;;;;4990894;28;20033;-50
2022/08/14 05:09:29;;;;;;;3.17;2.80;;;20.30;99.90;;;;;;4991224;28;20046;-50
2022/08/14 05:11:55;;;;;;;2.92;2.72;;;20.30;99.90;;;;;;4990336;28;20037;-51
2022/08/14 05:14:21;;;;;;;3.17;2.65;;;20.20;99.90;;;;;;4990500;28;20033;-54
2022/08/14 05:16:47;;;;;;;3.15;2.78;;;20.30;99.90;;;;;;4990430;28;20058;-51
2022/08/14 05:19:13;;;;;;;3.63;2.72;;;20.30;99.90;;;;;;4990419;28;20054;-54
2022/08/14 05:21:42;;;;;;;2.70;2.50;;;20.30;99.90;;;;;;4982350;28;20113;-49
2022/08/14 05:24:11;;;;;;;6.45;2.80;;;20.30;99.90;;;;;;4990976;28;20034;-51
2022/08/14 05:26:40;;;;;;;6.07;2.97;;;20.30;99.90;;;;;;4988160;28;20026;-56
2022/08/14 05:29:09;;;;;;;4.05;2.78;;;20.30;99.90;;;;;;4987087;28;20121;-50
2022/08/14 05:31:38;;;;;;;4.00;2.70;;;20.40;99.90;;;;;;4990222;28;20073;-50
2022/08/14 05:34:06;;;;;;;4.43;2.30;;;20.40;99.90;;;;;;4989818;28;20018;-52
2022/08/14 05:36:32;;;;;;;3.58;2.65;;;20.40;99.90;;;;;;4984306;28;20033;-50
2022/08/14 05:38:58;;;;;;;2.63;2.42;;;20.40;99.90;;;;;;4989164;28;20022;-52
2022/08/14 05:41:23;;;;;;;4.30;2.60;;;20.40;99.90;;;;;;4989926;28;20079;-56
2022/08/14 05:43:49;;;;;;;4.45;2.42;;;20.40;99.90;;;;;;4990293;28;20054;-55
2022/08/14 05:46:17;;;;;;;2.95;2.70;;;20.50;99.90;;;;;;4987034;28;20031;-49
2022/08/14 05:48:52;;;;;;;3.00;2.78;;;20.50;99.90;;;;;;4982806;28;20626;-50
2022/08/14 05:51:19;;;;;;;3.67;3.10;;;20.50;99.90;;;;;;4983182;28;20340;-56
2022/08/14 05:53:45;;;;;;;4.22;2.65;;;20.60;99.90;;;;;;4982937;28;20118;-52
2022/08/14 05:56:11;;;;;;;3.00;2.78;;;20.70;99.90;;;;;;4989927;28;20018;-52
2022/08/14 05:58:36;;;;;;;2.55;2.35;;;20.70;99.90;;;;;;4989626;28;20049;-50
2022/08/14 06:01:03;;;;;;;3.00;2.70;;;20.80;99.90;;;;;;4989796;28;20097;-53
2022/08/14 06:03:28;;;;;;;3.25;2.70;;;20.90;99.90;;;;;;4990163;28;20023;-50
2022/08/14 06:05:54;;;;;;;4.78;2.58;;;20.90;99.90;;;;;;4990071;28;20129;-52
2022/08/14 06:08:31;;;;;;;3.50;2.35;;;21.00;99.90;;;;;;4990483;28;20101;-53
2022/08/14 06:11:01;;;;;;;3.13;2.50;;;21.10;99.90;;;;;;4988129;28;20046;-54
2022/08/14 06:13:38;;;;;;;2.40;2.22;;;21.20;99.90;;;;;;4980014;28;20023;-55
2022/08/14 06:16:04;;;;;;;2.63;2.40;;;21.20;99.90;;;;;;4989138;28;20038;-51
2022/08/14 06:18:29;;;;;;;3.47;2.72;;;21.40;99.90;;;;;;4989811;28;20371;-56
2022/08/14 06:20:55;;;;;;;3.40;2.53;;;21.40;99.90;;;;;;4986009;28;20444;-51
2022/08/14 06:23:20;;;;;;;3.45;2.45;;;21.50;99.90;;;;;;4988210;28;20041;-52
2022/08/14 06:25:46;;;;;;;3.95;2.60;;;21.60;99.90;;;;;;4989944;28;20038;-53
2022/08/14 06:28:19;;;;;;;5.80;2.60;;;21.70;99.90;;;;;;4981412;28;20063;-53
2022/08/14 06:30:45;;;;;;;9.40;2.90;;;21.70;99.90;;;;;;4984573;28;20018;-55
2022/08/14 06:33:11;;;;;;;2.55;2.35;;;21.80;99.90;;;;;;4989331;28;20034;-55
2022/08/14 06:35:37;;;;;;;3.35;2.40;;;22.00;99.90;;;;;;4980931;28;20042;-54
2022/08/14 06:38:03;;;;;;;5.65;2.42;;;22.10;99.90;;;;;;4989863;28;20406;-50
2022/08/14 06:40:33;;;;;;;4.20;2.63;;;22.20;99.90;;;;;;4989486;28;20066;-50
2022/08/14 06:43:01;;;;;;;3.55;2.40;;;22.20;99.90;;;;;;4989050;28;20042;-53
2022/08/14 06:45:28;;;;;;;5.55;2.85;;;22.30;99.90;;;;;;4989502;28;20034;-52
2022/08/14 06:47:54;;;;;;;6.50;2.88;;;22.40;99.90;;;;;;4988940;28;20057;-59
2022/08/14 06:50:22;;;;;;;3.08;2.80;;;22.60;99.90;;;;;;4984093;28;20014;-54
2022/08/14 06:52:48;;;;;;;4.00;2.35;;;22.60;99.90;;;;;;4989278;28;20027;-57
2022/08/14 06:55:16;;;;;;;3.45;2.45;;;22.70;99.90;;;;;;4989685;28;20541;-54
2022/08/14 06:57:44;;;;;;;2.30;2.10;;;22.80;99.90;;;;;;4987572;28;20029;-56
2022/08/14 07:00:16;;;;;;;4.93;2.30;;;22.90;99.90;;;;;;4986543;28;20033;-54
2022/08/14 07:08:19;;;;;;;3.40;2.40;;;23.30;99.90;;;;;;4984635;28;20042;-56
2022/08/14 07:10:47;;;;;;;2.78;2.42;;;23.40;99.90;;;;;;4982133;28;20033;-56
2022/08/14 07:13:13;;;;;;;5.07;2.40;;;23.50;99.90;;;;;;4988709;28;20026;-53
2022/08/14 07:15:44;;;;;;;2.58;2.22;;;23.70;99.90;;;;;;4989120;28;20100;-56
2022/08/14 07:18:11;;;;;;;2.47;2.28;;;23.80;99.90;;;;;;4988939;28;20596;-55
2022/08/14 07:20:38;;;;;;;2.55;2.20;;;24.00;99.90;;;;;;4987842;28;20038;-56
2022/08/14 07:23:05;;;;;;;2.72;2.53;;;24.10;99.90;;;;;;4986023;28;20027;-57
2022/08/14 07:25:31;;;;;;;5.40;2.58;;;24.30;99.90;;;;;;4989377;28;20084;-55
2022/08/14 07:27:57;;;;;;;3.13;2.20;;;24.40;99.90;;;;;;4989187;28;20022;-57
2022/08/14 07:30:23;;;;;;;2.53;2.33;;;24.50;99.90;;;;;;4988683;28;20438;-55
2022/08/14 07:32:49;;;;;;;4.22;2.58;;;24.60;99.90;;;;;;4985213;28;20517;-55
2022/08/14 07:35:14;;;;;;;3.78;2.67;;;24.70;99.90;;;;;;4984628;28;20053;-58
2022/08/14 07:37:40;;;;;;;2.58;2.38;;;24.60;99.90;;;;;;4988697;28;20490;-53
2022/08/14 07:40:07;;;;;;;6.78;2.50;;;24.60;99.90;;;;;;4980525;28;20057;-59
2022/08/14 07:42:32;;;;;;;5.63;2.80;;;24.60;99.90;;;;;;4980864;28;20034;-55
2022/08/14 07:44:59;;;;;;;3.50;2.50;;;24.60;99.90;;;;;;4986604;28;20027;-55
2022/08/14 07:47:25;;;;;;;2.22;2.03;;;24.60;99.90;;;;;;4987647;28;20046;-52
2022/08/14 07:50:01;;;;;;;3.72;2.40;;;24.70;99.90;;;;;;4991328;28;20053;-52
2022/08/14 07:52:28;;;;;;;4.47;2.50;;;24.80;99.90;;;;;;4990574;28;20037;-56
2022/08/14 07:54:53;;;;;;;2.33;2.20;;;25.00;99.90;;;;;;4992762;28;20389;-55
2022/08/14 07:57:19;;;;;;;4.57;2.30;;;25.20;99.80;;;;;;4992452;28;20034;-51
2022/08/14 07:59:46;;;;;;;3.40;2.45;;;25.40;99.00;;;;;;4992797;28;20069;-51
2022/08/14 08:02:14;;;;;;;2.70;2.45;;;25.60;98.60;;;;;;4991801;28;20022;-55
2022/08/14 08:04:43;;;;;;;4.88;2.42;;;25.60;98.40;;;;;;4986852;28;20518;-53
2022/08/14 08:07:10;;;;;;;4.25;2.58;;;25.70;98.60;;;;;;4992282;28;20468;-55
2022/08/14 08:09:36;;;;;;;2.85;2.30;;;25.90;98.10;;;;;;4992660;28;20030;-58
2022/08/14 08:12:04;;;;;;;2.72;2.20;;;26.00;98.00;;;;;;4992159;28;20379;-53
2022/08/14 08:14:33;;;;;;;4.65;2.47;;;26.10;97.80;;;;;;4989127;28;20037;-57
2022/08/14 08:16:59;;;;;;;4.82;2.38;;;26.20;97.60;;;;;;4991459;28;20026;-53
2022/08/14 08:19:25;;;;;;;2.72;2.40;;;26.40;96.90;;;;;;4992469;28;20509;-56
2022/08/14 08:21:52;;;;;;;3.00;2.38;;;26.60;96.60;;;;;;4992044;28;20041;-52
2022/08/14 08:24:17;;;;;;;3.05;2.55;;;26.90;96.60;;;;;;4992502;28;20105;-56
2022/08/14 08:26:43;;;;;;;2.78;2.45;;;27.10;96.30;;;;;;4992010;28;20117;-48
2022/08/14 08:29:08;;;;;;;3.03;2.40;;;27.30;95.50;;;;;;4992122;28;20076;-54
2022/08/14 08:31:48;;;;;;;3.40;2.28;;;27.50;95.80;;;;;;4992105;28;20018;-50
2022/08/14 08:34:14;;;;;;;3.08;2.58;;;27.80;94.70;;;;;;4992219;28;20024;-50
2022/08/14 08:36:40;;;;;;;3.08;2.88;;;27.80;94.70;;;;;;4992201;28;20398;-52
2022/08/14 08:39:06;;;;;;;8.32;3.38;;;27.90;95.10;;;;;;4992086;28;20113;-50
2022/08/14 08:41:44;;;;;;;3.15;2.88;;;28.10;94.40;;;;;;4991973;28;20121;-51
2022/08/14 08:44:10;;;;;;;3.00;2.70;;;28.30;93.90;;;;;;4991796;28;20030;-49
2022/08/14 08:46:36;;;;;;;2.75;2.38;;;28.50;93.80;;;;;;4988003;28;20034;-56
2022/08/14 08:49:02;;;;;;;2.80;2.60;;;28.60;93.80;;;;;;4990344;28;20093;-54
2022/08/14 08:51:29;;;;;;;2.88;2.30;;;28.70;93.30;;;;;;4991551;28;20568;-53
2022/08/14 08:54:07;;;;;;;3.08;2.72;;;28.70;93.10;;;;;;4991205;28;20026;-52
2022/08/14 08:56:47;;;;;;;3.58;3.10;;;28.70;93.20;;;;;;4991869;28;20414;-51
2022/08/14 08:59:22;;;;;;;3.80;2.88;;;28.60;92.20;;;;;;4990756;28;20092;-56
2022/08/14 09:01:50;;;;;;;5.95;3.40;;;28.80;92.20;;;;;;4990729;28;20137;-56
2022/08/14 09:04:16;;;;;;;4.15;3.05;;;28.90;92.30;;;;;;4987715;28;20119;-55
2022/08/14 09:06:43;;;;;;;3.75;2.70;;;29.10;92.20;;;;;;4984850;28;20022;-52
2022/08/14 09:09:24;;;;;;;3.28;2.97;;;29.20;92.10;;;;;;4990388;28;20037;-50
2022/08/14 09:11:53;;;;;;;3.15;2.88;;;29.20;91.90;;;;;;4991135;28;20033;-55
2022/08/14 09:14:23;;;;;;;3.97;2.90;;;29.10;91.30;;;;;;4991008;28;20034;-55
2022/08/14 09:16:50;;;;;;;4.53;2.80;;;29.10;91.50;;;;;;4991514;28;20030;-57
2022/08/14 09:19:16;;;;;;;6.07;3.15;;;29.20;91.50;;;;;;4990745;28;20034;-53
2022/08/14 09:21:43;;;;;;;4.32;3.22;;;29.20;91.60;;;;;;5021632;23;20054;-57
2022/08/14 09:24:09;;;;;;;5.20;3.38;;;29.40;91.40;;;;;;4968314;28;20027;-55
2022/08/14 09:26:36;;;;;;;3.35;3.05;;;29.50;90.90;;;;;;4965718;28;20054;-57
2022/08/14 09:29:06;;;;;;;3.25;2.97;;;29.40;91.10;;;;;;4969486;28;20089;-57
2022/08/14 09:31:33;;;;;;;3.42;3.13;;;29.50;90.80;;;;;;4963327;28;20029;-55
2022/08/14 09:34:19;;;;;;;3.97;3.00;;;29.50;90.90;;;;;;4959959;28;20024;-58
2022/08/14 09:36:52;;;;;;;4.85;3.17;;;29.50;91.00;;;;;;4954633;28;20031;-57
2022/08/14 09:39:44;;;;;;;4.70;3.28;;;29.40;90.60;;;;;;4953409;28;20035;-56
2022/08/14 09:42:37;;;;;;;3.33;3.03;;;29.30;90.70;;;;;;4959717;28;20075;-58
2022/08/14 09:45:11;;;;;;;6.07;3.17;;;29.30;90.60;;;;;;4964488;28;20031;-57
2022/08/14 09:47:40;;;;;;;3.63;3.33;;;29.20;91.00;;;;;;4951089;28;20082;-58
2022/08/14 09:50:31;;;;;;;3.47;3.20;;;29.20;91.00;;;;;;4960813;28;20275;-58
2022/08/14 09:53:05;;;;;;;5.03;3.10;;;29.10;90.70;;;;;;4958688;28;20472;-59
2022/08/14 09:55:37;;;;;;;5.03;3.35;;;29.10;91.00;;;;;;4958343;28;20030;-56
2022/08/14 09:58:18;;;;;;;3.10;2.90;;;29.10;90.90;;;;;;4961747;28;20057;-57
2022/08/14 10:00:50;;;;;;;3.30;3.10;;;29.10;91.20;;;;;;4960956;28;20026;-57
2022/08/14 10:03:32;;;;;;;5.15;3.72;;;29.10;91.20;;;;;;4950827;28;20022;-58
2022/08/14 10:06:12;;;;;;;3.42;2.97;;;29.20;90.80;;;;;;4959720;28;20097;-59
2022/08/14 10:08:59;;;;;;;4.75;3.40;;;29.20;90.60;;;;;;4960356;28;20027;-59
2022/08/14 10:11:28;;;;;;;3.50;3.20;;;29.30;90.90;;;;;;4962804;28;20374;-57
2022/08/14 10:13:58;;;;;;;4.47;3.50;;;29.30;90.80;;;;;;4958788;28;20019;-58
2022/08/14 10:16:27;;;;;;;3.58;3.28;;;29.40;90.70;;;;;;4960702;28;20034;-58
2022/08/14 10:19:10;;;;;;;5.25;3.70;;;29.30;90.50;;;;;;4960535;28;20082;-58
2022/08/14 10:21:42;;;;;;;4.57;3.63;;;29.40;90.60;;;;;;4956476;28;20439;-56
2022/08/14 10:24:21;;;;;;;5.65;3.70;;;29.40;90.60;;;;;;4957062;28;20439;-55
2022/08/14 10:26:55;;;;;;;3.78;3.25;;;29.50;90.90;;;;;;4960572;28;20712;-58
2022/08/14 10:29:34;;;;;;;3.67;3.33;;;29.50;90.40;;;;;;4958561;28;20030;-59
2022/08/14 10:32:00;;;;;;;3.97;3.60;;;29.40;90.40;;;;;;4954358;28;20054;-57
2022/08/14 10:34:32;;;;;;;6.30;4.15;;;29.30;90.50;;;;;;4957190;28;20049;-56
2022/08/14 10:37:10;;;;;;;4.55;3.33;;;29.30;90.20;;;;;;4961553;28;20042;-57
2022/08/14 10:39:38;;;;;;;3.90;3.60;;;29.30;90.40;;;;;;4963909;28;20035;-56
2022/08/14 10:42:10;;;;;;;4.00;3.70;;;29.40;90.40;;;;;;4959921;28;20041;-57
2022/08/14 10:44:44;;;;;;;5.45;3.95;;;29.50;90.20;;;;;;4962330;28;20035;-58
2022/08/14 10:47:11;;;;;;;4.07;3.70;;;29.60;90.00;;;;;;4957731;28;20181;-57
2022/08/14 10:49:48;;;;;;;4.38;3.97;;;29.60;90.10;;;;;;4962802;28;20373;-58
2022/08/14 10:52:23;;;;;;;5.47;3.88;;;29.60;90.20;;;;;;4947672;28;20030;-57
2022/08/14 10:54:50;;;;;;;3.90;3.50;;;29.60;90.20;;;;;;4962897;28;20077;-54
2022/08/14 10:57:20;;;;;;;6.18;3.70;;;29.60;90.20;;;;;;4954514;28;20037;-58
2022/08/14 11:00:14;;;;;;;3.88;3.58;;;29.60;90.20;;;;;;4956148;28;20557;-57
2022/08/14 11:02:41;;;;;;;3.88;3.47;;;29.60;90.50;;;;;;4952311;28;20039;-55
2022/08/14 11:05:09;;;;;;;4.20;3.80;;;29.50;90.30;;;;;;4944099;28;20032;-57
2022/08/14 11:07:38;;;;;;;3.58;3.38;;;29.50;90.40;;;;;;4953908;28;20431;-57
2022/08/14 11:10:13;;;;;;;3.60;3.30;;;29.40;90.50;;;;;;4959197;28;20102;-56
2022/08/14 11:12:50;;;;;;;5.93;3.78;;;29.40;90.70;;;;;;4959830;28;20023;-57
2022/08/14 11:15:21;;;;;;;4.38;3.60;;;29.30;90.60;;;;;;4935520;28;20557;-59
2022/08/14 11:17:49;;;;;;;4.25;3.28;;;29.20;90.70;;;;;;4959693;28;20023;-57
2022/08/14 11:20:18;;;;;;;4.25;3.50;;;29.20;90.50;;;;;;4953902;28;20485;-56
2022/08/14 11:22:44;;;;;;;3.78;3.45;;;29.00;90.70;;;;;;4961195;28;20059;-58
2022/08/14 11:25:13;;;;;;;4.28;3.80;;;29.00;91.00;;;;;;4959711;28;20034;-58
2022/08/14 11:27:44;;;;;;;5.38;3.83;;;29.00;91.00;;;;;;4965039;28;20023;-57
2022/08/14 11:30:13;;;;;;;4.07;3.75;;;29.00;90.70;;;;;;4962705;28;20035;-56
2022/08/14 11:32:41;;;;;;;4.32;3.92;;;29.00;90.80;;;;;;4966958;28;20023;-57
2022/08/14 11:35:11;;;;;;;4.93;3.80;;;29.00;90.50;;;;;;4962710;28;20049;-52
2022/08/14 11:37:38;;;;;;;6.00;3.55;;;29.00;90.80;;;;;;4967961;28;20039;-52
2022/08/14 11:40:04;;;;;;;5.30;3.83;;;29.10;90.70;;;;;;4959444;28;20510;-53
2022/08/14 11:42:31;;;;;;;4.55;3.72;;;29.20;90.40;;;;;;4977041;28;20431;-53
2022/08/14 11:44:59;;;;;;;4.72;4.35;;;29.10;90.10;;;;;;4962920;28;20031;-52
2022/08/14 11:47:24;;;;;;;4.35;4.00;;;29.10;90.20;;;;;;4960462;28;20027;-53
2022/08/14 11:49:50;;;;;;;4.65;3.63;;;29.00;90.30;;;;;;4959400;28;20530;-50
2022/08/14 11:52:18;;;;;;;6.47;4.53;;;29.00;90.40;;;;;;4960815;28;20491;-48
2022/08/14 11:54:45;;;;;;;4.68;4.10;;;29.00;90.20;;;;;;4963789;28;20027;-50
2022/08/14 11:57:15;;;;;;;4.20;3.80;;;29.10;90.10;;;;;;4965566;28;20019;-52
2022/08/14 11:59:41;;;;;;;4.40;3.78;;;29.10;90.20;;;;;;4958160;28;20063;-54
2022/08/14 12:02:10;;;;;;;4.32;3.63;;;29.10;90.40;;;;;;4967224;28;20035;-54
2022/08/14 12:04:48;;;;;;;4.40;3.85;;;29.20;90.40;;;;;;4960591;28;20521;-52
2022/08/14 12:07:13;;;;;;;4.50;4.10;;;29.30;90.20;;;;;;4968025;28;20035;-55
2022/08/14 12:09:39;;;;;;;8.13;3.97;;;29.30;90.30;;;;;;4960703;28;20030;-55
2022/08/14 12:12:22;;;;;;;5.47;4.43;;;29.30;90.10;;;;;;4968742;28;20027;-54
2022/08/14 12:14:55;;;;;;;6.00;4.10;;;29.30;90.10;;;;;;4961356;28;20019;-55
2022/08/14 12:17:23;;;;;;;4.57;4.25;;;29.20;90.10;;;;;;4951004;28;20437;-52
2022/08/14 12:19:55;;;;;;;5.32;3.85;;;29.20;90.00;;;;;;4962051;28;20038;-54
2022/08/14 12:22:39;;;;;;;4.25;3.95;;;29.20;90.00;;;;;;4964859;28;20105;-53
2022/08/14 12:25:11;;;;;;;6.13;4.30;;;29.20;90.30;;;;;;4963744;28;20029;-54
2022/08/14 12:27:41;;;;;;;4.78;4.28;;;29.20;90.50;;;;;;4964170;28;20053;-55
2022/08/14 12:30:08;;;;;;;5.80;4.28;;;29.30;90.20;;;;;;4962137;28;20075;-51
2022/08/14 12:32:47;;;;;;;4.75;4.35;;;29.30;90.20;;;;;;4965416;28;20023;-53
2022/08/14 12:35:13;;;;;;;5.22;4.15;;;29.40;90.90;;;;;;4960458;28;20031;-56
2022/08/14 12:37:50;;;;;;;7.43;4.28;;;29.60;90.30;;;;;;4967121;28;20019;-54
2022/08/14 12:40:23;;;;;;;6.38;4.20;;;29.60;90.10;;;;;;4956256;28;20037;-53
2022/08/14 12:42:50;;;;;;;4.80;4.45;;;29.50;90.10;;;;;;4961127;28;20023;-56
2022/08/14 12:45:16;;;;;;;5.47;4.43;;;29.50;90.00;;;;;;4967181;28;20098;-53
2022/08/14 12:47:44;;;;;;;4.53;4.22;;;29.60;90.20;;;;;;4960749;28;20039;-52
2022/08/14 12:50:10;;;;;;;9.70;4.55;;;29.70;90.00;;;;;;4966607;28;20478;-52
2022/08/14 12:52:40;;;;;;;5.25;4.53;;;29.90;90.00;;;;;;4960142;28;20027;-56
2022/08/14 12:55:10;;;;;;;4.70;4.30;;;30.00;90.00;;;;;;4949985;28;20039;-52
2022/08/14 12:57:44;;;;;;;7.07;4.60;;;30.10;88.40;;;;;;4959256;28;20028;-53
2022/08/14 13:00:17;;;;;;;4.75;4.35;;;30.20;88.20;;;;;;4961397;28;20611;-51
2022/08/14 13:02:49;;;;;;;6.47;4.60;;;30.20;88.00;;;;;;4962343;28;20106;-55
2022/08/14 13:05:15;;;;;;;9.45;4.47;;;30.30;89.20;;;;;;4950435;28;20027;-49
2022/08/14 13:07:42;;;;;;;4.45;4.05;;;30.50;88.60;;;;;;4963078;28;20074;-49
2022/08/14 13:10:10;;;;;;;5.32;4.85;;;30.70;87.10;;;;;;4963052;28;20427;-51
2022/08/14 13:12:37;;;;;;;4.82;4.43;;;30.80;86.40;;;;;;4962925;28;20082;-53
2022/08/14 13:15:06;;;;;;;5.00;4.50;;;31.00;87.00;;;;;;4962432;28;20082;-53